Terminal Aerodrome Forecast
Issued by NWS

Home | Current Version | Previous Version | Text Only | Print | Product List | Glossary On
Versions: 1 2 3 4 5 6 7 8 9 10 11 12 13 14 15 16 17 18
000
FTUS46 KPDT 210500
TAFBDN
TAF
KBDN 210528Z 2106/2206 23020G35KT P6SM -RA OVC045
     FM211100 27025G35KT P6SM -RA OVC045
     FM211900 28018G28KT P6SM -SHRA OVC045=

USA.gov is the U.S. government's official web portal to all federal, state and local government web resources and services.